createdAt,value
2023-02-25T00:00:57.691Z,9.40
2023-02-25T00:03:25.925Z,9.30
2023-02-25T00:05:54.195Z,9.30
2023-02-25T00:08:22.307Z,9.30
2023-02-25T00:10:59.054Z,9.20
2023-02-25T00:13:27.304Z,9.20
2023-02-25T00:15:58.295Z,9.20
2023-02-25T00:18:26.692Z,9.20
2023-02-25T00:20:54.859Z,9.20
2023-02-25T00:23:23.030Z,9.20
2023-02-25T00:25:51.253Z,9.10
2023-02-25T00:28:19.457Z,9.10
2023-02-25T00:30:49.490Z,9.10
2023-02-25T00:33:19.041Z,9.10
2023-02-25T00:35:47.964Z,9.00
2023-02-25T00:38:16.406Z,9.10
2023-02-25T00:40:47.099Z,9.00
2023-02-25T00:43:15.245Z,9.00
2023-02-25T00:45:43.411Z,9.00
2023-02-25T00:48:11.555Z,9.00
2023-02-25T00:50:41.182Z,9.00
2023-02-25T00:53:09.305Z,8.90
2023-02-25T00:55:37.562Z,8.90
2023-02-25T00:58:05.766Z,8.90
2023-02-25T01:00:46.584Z,8.90
2023-02-25T01:03:18.423Z,8.90
2023-02-25T01:05:49.531Z,8.90
2023-02-25T01:08:18.603Z,8.90
2023-02-25T01:10:47.263Z,8.90
2023-02-25T01:13:15.960Z,9.00
2023-02-25T01:15:44.682Z,8.90
2023-02-25T01:18:13.214Z,9.00
2023-02-25T01:20:41.604Z,8.90
2023-02-25T01:23:11.300Z,8.90
2023-02-25T01:25:41.163Z,8.90
2023-02-25T01:28:09.342Z,8.80
2023-02-25T01:30:38.381Z,8.80
2023-02-25T01:33:06.642Z,8.80
2023-02-25T01:35:37.355Z,8.80
2023-02-25T01:38:05.514Z,8.80
2023-02-25T01:40:35.143Z,8.80
2023-02-25T01:43:03.374Z,8.80
2023-02-25T01:45:32.798Z,8.80
2023-02-25T01:48:11.196Z,8.80
2023-02-25T01:50:44.891Z,8.80
2023-02-25T01:53:13.993Z,8.80
2023-02-25T01:55:43.448Z,8.80
2023-02-25T01:58:11.808Z,8.80
2023-02-25T02:00:40.218Z,8.80
2023-02-25T02:03:16.186Z,8.80
2023-02-25T02:05:54.100Z,8.90
2023-02-25T02:08:23.142Z,8.90
2023-02-25T02:10:52.704Z,8.90
2023-02-25T02:13:20.860Z,8.90
2023-02-25T02:16:06.485Z,8.90
2023-02-25T02:18:36.325Z,8.90
2023-02-25T02:21:15.326Z,8.90
2023-02-25T02:24:10.983Z,8.90
2023-02-25T02:26:55.091Z,8.90
2023-02-25T02:30:17.873Z,8.90
2023-02-25T02:32:49.525Z,8.90
2023-02-25T02:35:21.956Z,8.90
2023-02-25T02:37:59.733Z,8.90
2023-02-25T02:40:42.367Z,8.90
2023-02-25T02:43:19.365Z,8.90
2023-02-25T02:45:50.605Z,8.90
2023-02-25T02:48:22.228Z,8.90
2023-02-25T02:50:53.497Z,8.90
2023-02-25T02:53:25.970Z,8.90
2023-02-25T02:55:57.828Z,8.90
2023-02-25T02:58:28.896Z,9.00
2023-02-25T03:01:00.279Z,9.00
2023-02-25T03:03:37.083Z,9.00
2023-02-25T03:06:10.210Z,9.00
2023-02-25T03:08:44.581Z,9.00
2023-02-25T03:11:13.593Z,9.00
2023-02-25T03:13:41.820Z,9.00
2023-02-25T03:16:14.160Z,9.00
2023-02-25T03:18:48.893Z,9.00
2023-02-25T03:21:20.618Z,9.00
2023-02-25T03:23:48.777Z,9.00
2023-02-25T03:26:23.234Z,9.00
2023-02-25T03:28:55.497Z,9.00
2023-02-25T03:31:25.921Z,9.00
2023-02-25T03:33:58.402Z,8.90
2023-02-25T03:36:29.593Z,8.90
2023-02-25T03:39:01.826Z,8.90
2023-02-25T03:41:35.283Z,8.90
2023-02-25T03:44:05.177Z,8.90
2023-02-25T03:46:34.746Z,8.90
2023-02-25T03:49:04.993Z,8.90
2023-02-25T03:51:36.424Z,9.00
2023-02-25T03:54:05.030Z,9.00
2023-02-25T03:56:43.343Z,9.00
2023-02-25T03:59:11.545Z,9.00
2023-02-25T04:01:41.001Z,9.00
2023-02-25T04:04:11.969Z,9.00
2023-02-25T04:06:40.740Z,9.00
2023-02-25T04:09:09.307Z,8.90
2023-02-25T04:11:37.453Z,8.90
2023-02-25T04:14:05.590Z,8.90
2023-02-25T04:16:33.853Z,8.90
2023-02-25T04:19:03.283Z,8.90
2023-02-25T04:21:35.350Z,8.90
2023-02-25T04:24:03.874Z,9.00
2023-02-25T04:26:32.145Z,9.00
2023-02-25T04:29:00.373Z,9.00
2023-02-25T04:31:28.739Z,9.10
2023-02-25T04:33:58.210Z,9.10
2023-02-25T04:36:28.505Z,9.10
2023-02-25T04:38:58.365Z,9.10
2023-02-25T04:41:28.987Z,9.20
2023-02-25T04:43:57.195Z,9.20
2023-02-25T04:46:25.821Z,9.20
2023-02-25T04:48:54.413Z,9.20
2023-02-25T04:51:22.530Z,9.20
2023-02-25T04:53:50.738Z,9.20
2023-02-25T04:56:20.704Z,9.30
2023-02-25T04:58:48.857Z,9.30
2023-02-25T05:01:17.240Z,9.30
2023-02-25T05:03:45.371Z,9.30
2023-02-25T05:06:13.546Z,9.30
2023-02-25T05:08:42.200Z,9.30
2023-02-25T05:11:10.338Z,9.30
2023-02-25T05:13:39.811Z,9.20
2023-02-25T05:16:10.310Z,9.20
2023-02-25T05:18:38.783Z,9.20
2023-02-25T05:21:10.596Z,9.20
2023-02-25T05:23:38.901Z,9.20
2023-02-25T05:26:07.484Z,9.20
2023-02-25T05:28:35.802Z,9.10
2023-02-25T05:31:07.551Z,9.10
2023-02-25T05:33:38.119Z,9.10
2023-02-25T05:36:07.568Z,9.10
2023-02-25T05:38:36.746Z,9.10
2023-02-25T05:41:05.871Z,9.10
2023-02-25T05:43:34.172Z,9.10
2023-02-25T05:46:03.187Z,9.10
2023-02-25T05:48:33.117Z,9.00
2023-02-25T05:51:02.285Z,9.00
2023-02-25T05:53:30.488Z,9.00
2023-02-25T05:55:58.572Z,9.00
2023-02-25T05:58:26.784Z,9.00
2023-02-25T06:00:54.913Z,9.00
2023-02-25T06:03:23.169Z,9.00
2023-02-25T06:05:53.148Z,9.00
2023-02-25T06:08:21.334Z,8.90
2023-02-25T06:10:49.454Z,8.90
2023-02-25T06:13:17.599Z,8.90
2023-02-25T06:15:45.808Z,8.90
2023-02-25T06:18:14.168Z,9.00
2023-02-25T06:20:42.330Z,9.00
2023-02-25T06:23:11.813Z,9.00
2023-02-25T06:25:39.971Z,9.00
2023-02-25T06:28:08.175Z,9.00
2023-02-25T06:30:36.290Z,9.00
2023-02-25T06:33:04.543Z,9.10
2023-02-25T06:35:32.746Z,9.00
2023-02-25T06:38:01.560Z,9.00
2023-02-25T06:40:33.041Z,9.00
2023-02-25T06:43:01.132Z,9.00
2023-02-25T06:45:29.293Z,9.00
2023-02-25T06:47:57.455Z,9.00
2023-02-25T06:50:25.668Z,8.90
2023-02-25T06:52:53.797Z,8.90
2023-02-25T06:55:22.137Z,8.90
2023-02-25T06:57:51.611Z,8.90
2023-02-25T07:00:20.631Z,8.90
2023-02-25T07:02:48.799Z,8.90
2023-02-25T07:05:17.450Z,8.90
2023-02-25T07:07:45.598Z,8.90
2023-02-25T07:10:13.872Z,8.80
2023-02-25T07:12:42.081Z,8.80
2023-02-25T07:15:12.256Z,8.90
2023-02-25T07:17:40.435Z,8.90
2023-02-25T07:20:10.866Z,8.80
2023-02-25T07:22:39.257Z,8.90
2023-02-25T07:25:09.341Z,8.90
2023-02-25T07:27:37.538Z,8.90
2023-02-25T07:30:06.962Z,8.90
2023-02-25T07:32:36.523Z,8.90
2023-02-25T07:35:05.490Z,8.90
2023-02-25T07:37:33.692Z,8.80
2023-02-25T07:40:01.868Z,8.80
2023-02-25T07:42:30.215Z,8.80
2023-02-25T07:45:02.276Z,8.80
2023-02-25T07:47:30.669Z,8.80
2023-02-25T07:50:00.185Z,8.80
2023-02-25T07:52:28.339Z,8.80
2023-02-25T07:54:56.545Z,8.80
2023-02-25T07:57:24.726Z,8.80
2023-02-25T07:59:52.971Z,8.80
2023-02-25T08:02:21.710Z,8.80
2023-02-25T08:04:50.037Z,8.80
2023-02-25T08:07:20.438Z,8.80
2023-02-25T08:09:48.937Z,8.80
2023-02-25T08:12:17.112Z,8.80
2023-02-25T08:14:46.191Z,8.80
2023-02-25T08:17:15.469Z,8.80
2023-02-25T08:19:43.621Z,8.80
2023-02-25T08:22:12.458Z,8.80
2023-02-25T08:24:42.189Z,8.80
2023-02-25T08:27:10.478Z,8.80
2023-02-25T08:29:38.750Z,8.80
2023-02-25T08:32:07.518Z,8.80
2023-02-25T08:34:36.015Z,8.80
2023-02-25T08:37:04.264Z,8.80
2023-02-25T08:39:35.886Z,8.80
2023-02-25T08:42:06.054Z,8.80
2023-02-25T08:44:34.233Z,8.90
2023-02-25T08:47:05.014Z,8.90
2023-02-25T08:49:33.383Z,8.90
2023-02-25T08:52:01.540Z,8.90
2023-02-25T08:54:29.794Z,9.00
2023-02-25T08:57:00.143Z,9.00
2023-02-25T08:59:36.054Z,9.00
2023-02-25T09:02:06.202Z,9.00
2023-02-25T09:04:34.938Z,9.00
2023-02-25T09:07:03.289Z,9.00
2023-02-25T09:09:31.941Z,9.00
2023-02-25T09:12:00.199Z,9.00
2023-02-25T09:14:29.691Z,9.00
2023-02-25T09:16:58.004Z,9.00
2023-02-25T09:19:26.166Z,9.00
2023-02-25T09:21:54.269Z,9.00
2023-02-25T09:24:22.433Z,9.10
2023-02-25T09:26:51.110Z,9.00
2023-02-25T09:29:19.565Z,9.00
2023-02-25T09:31:49.333Z,9.00
2023-02-25T09:34:18.248Z,9.00
2023-02-25T09:36:46.396Z,8.90
2023-02-25T09:39:14.593Z,9.00
2023-02-25T09:41:50.205Z,9.00
2023-02-25T09:44:20.821Z,9.00
2023-02-25T09:46:53.719Z,9.00
2023-02-25T09:49:27.421Z,9.00
2023-02-25T09:52:00.584Z,9.10
2023-02-25T09:54:34.259Z,9.10
2023-02-25T09:57:03.190Z,9.10
2023-02-25T09:59:31.628Z,9.20
2023-02-25T10:02:06.374Z,9.20
2023-02-25T10:04:39.090Z,9.30
2023-02-25T10:07:12.667Z,9.30
2023-02-25T10:09:46.829Z,9.40
2023-02-25T10:12:22.046Z,9.40
2023-02-25T10:15:25.648Z,9.50
2023-02-25T10:18:11.441Z,9.50
2023-02-25T10:20:56.275Z,9.50
2023-02-25T10:23:37.823Z,9.50
2023-02-25T10:26:09.420Z,9.50
2023-02-25T10:28:37.632Z,9.50
2023-02-25T10:31:08.032Z,9.50
2023-02-25T10:33:40.296Z,9.40
2023-02-25T10:36:11.137Z,9.50
2023-02-25T10:38:41.967Z,9.50
2023-02-25T10:41:10.085Z,9.50
2023-02-25T10:43:38.327Z,9.50
2023-02-25T10:46:11.474Z,9.50
2023-02-25T10:48:42.235Z,9.60
2023-02-25T10:51:12.724Z,9.60
2023-02-25T10:53:41.043Z,9.60
2023-02-25T10:56:09.477Z,9.60
2023-02-25T10:58:40.855Z,9.60
2023-02-25T11:01:14.841Z,9.60
2023-02-25T11:03:49.359Z,9.60
2023-02-25T11:06:24.881Z,9.60
2023-02-25T11:08:54.645Z,9.60
2023-02-25T11:11:24.257Z,9.70
2023-02-25T11:14:02.175Z,9.70
2023-02-25T11:16:31.197Z,9.70
2023-02-25T11:19:02.532Z,9.70
2023-02-25T11:21:34.120Z,9.70
2023-02-25T11:24:05.851Z,9.70
2023-02-25T11:26:35.431Z,9.70
2023-02-25T11:29:07.640Z,9.80
2023-02-25T11:31:38.115Z,9.90
2023-02-25T11:34:13.954Z,10.00
2023-02-25T11:36:42.220Z,10.10
2023-02-25T11:39:19.850Z,10.20
2023-02-25T11:41:49.594Z,10.30
2023-02-25T11:44:30.186Z,10.40
2023-02-25T11:47:03.035Z,10.50
2023-02-25T11:49:45.587Z,10.50
2023-02-25T11:52:18.021Z,10.50
2023-02-25T11:54:54.016Z,10.50
2023-02-25T11:57:28.384Z,10.60
2023-02-25T12:00:02.129Z,10.50
2023-02-25T12:02:47.802Z,10.50
2023-02-25T12:05:51.933Z,10.50
2023-02-25T12:09:14.195Z,10.50
2023-02-25T12:12:18.954Z,10.50
2023-02-25T12:15:47.630Z,10.50
2023-02-25T12:19:11.427Z,10.60
2023-02-25T12:22:15.275Z,10.60
2023-02-25T12:24:56.969Z,10.70
2023-02-25T12:27:44.646Z,10.80
2023-02-25T12:31:00.810Z,10.90
2023-02-25T12:33:44.492Z,10.90
2023-02-25T12:36:35.746Z,11.00
2023-02-25T12:39:46.543Z,11.00
2023-02-25T12:42:46.161Z,11.00
2023-02-25T12:45:34.643Z,11.10
2023-02-25T12:48:21.097Z,11.10
2023-02-25T12:51:17.249Z,11.10
2023-02-25T12:53:51.724Z,11.00
2023-02-25T12:56:59.338Z,11.00
2023-02-25T12:59:56.407Z,11.00
2023-02-25T13:02:38.332Z,11.00
2023-02-25T13:05:29.513Z,10.90
2023-02-25T13:08:17.629Z,10.90
2023-02-25T13:10:58.159Z,10.90
2023-02-25T13:14:04.876Z,10.90
2023-02-25T13:16:53.732Z,10.90
2023-02-25T13:19:57.565Z,10.80
2023-02-25T13:22:41.133Z,10.80
2023-02-25T13:25:15.448Z,10.80
2023-02-25T13:27:57.126Z,10.80
2023-02-25T13:30:32.073Z,10.80
2023-02-25T13:33:29.170Z,10.60
2023-02-25T13:36:02.546Z,10.50
2023-02-25T13:38:41.704Z,10.30
2023-02-25T13:41:42.812Z,10.20
2023-02-25T13:44:28.613Z,10.00
2023-02-25T13:47:16.900Z,9.80
2023-02-25T13:50:35.878Z,9.70
2023-02-25T13:53:33.140Z,9.60
2023-02-25T13:56:33.805Z,9.50
2023-02-25T13:59:13.098Z,9.40
2023-02-25T14:02:04.847Z,9.40
2023-02-25T14:05:17.642Z,9.40
2023-02-25T14:08:00.849Z,9.50
2023-02-25T14:10:41.822Z,9.50
2023-02-25T14:13:45.801Z,9.60
2023-02-25T14:16:29.937Z,9.60
2023-02-25T14:19:33.924Z,9.80
2023-02-25T14:22:26.887Z,9.90
2023-02-25T14:25:03.799Z,10.00
2023-02-25T14:27:38.987Z,10.10
2023-02-25T14:30:18.715Z,10.20
2023-02-25T14:33:01.562Z,10.30
2023-02-25T14:35:56.771Z,10.40
2023-02-25T14:38:33.622Z,10.60
2023-02-25T14:41:14.049Z,10.70
2023-02-25T14:43:42.582Z,10.90
2023-02-25T14:46:19.879Z,11.00
2023-02-25T14:48:50.118Z,11.10
2023-02-25T14:51:47.153Z,11.30
2023-02-25T14:54:48.181Z,11.40
2023-02-25T14:57:43.104Z,11.50
2023-02-25T15:00:26.434Z,11.60
2023-02-25T15:03:04.304Z,11.60
2023-02-25T15:05:51.130Z,11.70
2023-02-25T15:08:59.772Z,11.70
2023-02-25T15:12:10.400Z,11.60
2023-02-25T15:15:11.436Z,11.50
2023-02-25T15:18:28.090Z,11.40
2023-02-25T15:20:56.940Z,11.40
2023-02-25T15:23:42.931Z,11.40
2023-02-25T15:26:23.541Z,11.30
2023-02-25T15:28:52.369Z,11.30
2023-02-25T15:31:30.331Z,11.30
2023-02-25T15:34:38.452Z,11.30
2023-02-25T15:37:30.678Z,11.30
2023-02-25T15:40:00.574Z,11.30
2023-02-25T15:42:47.909Z,11.20
2023-02-25T15:45:39.267Z,11.20
2023-02-25T15:48:36.059Z,11.10
2023-02-25T15:51:06.318Z,10.90
2023-02-25T15:53:48.969Z,10.90
2023-02-25T15:56:49.857Z,10.60
2023-02-25T15:59:45.502Z,10.30
2023-02-25T16:02:42.208Z,10.10
2023-02-25T16:05:28.701Z,9.80
2023-02-25T16:08:08.127Z,9.60
2023-02-25T16:10:39.555Z,9.40
2023-02-25T16:13:07.657Z,9.20
2023-02-25T16:15:40.782Z,9.00
2023-02-25T16:18:15.447Z,8.80
2023-02-25T16:20:46.632Z,8.70
2023-02-25T16:23:14.964Z,8.60
2023-02-25T16:25:48.225Z,8.50
2023-02-25T16:28:21.054Z,8.40
2023-02-25T16:30:55.204Z,8.30
2023-02-25T16:33:26.423Z,8.30
2023-02-25T16:36:06.854Z,8.30
2023-02-25T16:38:42.376Z,8.20
2023-02-25T16:41:10.538Z,8.10
2023-02-25T16:43:39.197Z,8.10
2023-02-25T16:46:10.449Z,8.00
2023-02-25T16:48:39.426Z,8.00
2023-02-25T16:51:11.548Z,7.90
2023-02-25T16:53:44.721Z,7.90
2023-02-25T16:56:19.848Z,7.80
2023-02-25T16:59:00.981Z,7.80
2023-02-25T17:01:31.476Z,7.70
2023-02-25T17:04:09.487Z,7.70
2023-02-25T17:06:38.198Z,7.60
2023-02-25T17:09:06.318Z,7.60
2023-02-25T17:11:34.512Z,7.60
2023-02-25T17:14:03.961Z,7.40
2023-02-25T17:16:39.052Z,7.50
2023-02-25T17:19:08.719Z,7.40
2023-02-25T17:21:37.784Z,7.40
2023-02-25T17:24:08.076Z,7.40
2023-02-25T17:26:36.246Z,7.30
2023-02-25T17:29:04.437Z,7.20
2023-02-25T17:31:37.753Z,7.20
2023-02-25T17:34:14.135Z,7.10
2023-02-25T17:36:42.523Z,7.10
2023-02-25T17:39:14.605Z,7.10
2023-02-25T17:41:43.042Z,7.00
2023-02-25T17:44:11.537Z,6.90
2023-02-25T17:46:44.510Z,6.90
2023-02-25T17:49:21.235Z,6.90
2023-02-25T17:51:53.837Z,6.90
2023-02-25T17:54:23.273Z,6.90
2023-02-25T17:56:56.813Z,6.90
2023-02-25T17:59:38.876Z,6.90
2023-02-25T18:02:30.387Z,6.90
2023-02-25T18:05:24.626Z,6.90
2023-02-25T18:08:18.660Z,6.90
2023-02-25T18:10:49.260Z,6.90
2023-02-25T18:13:25.202Z,6.90
2023-02-25T18:16:23.943Z,6.80
2023-02-25T18:18:53.756Z,6.80
2023-02-25T18:21:22.020Z,6.80
2023-02-25T18:23:51.051Z,6.80
2023-02-25T18:26:21.267Z,6.70
2023-02-25T18:28:49.413Z,6.70
2023-02-25T18:31:19.469Z,6.70
2023-02-25T18:33:48.294Z,6.70
2023-02-25T18:36:23.404Z,6.70
2023-02-25T18:38:52.459Z,6.70
2023-02-25T18:41:20.705Z,6.70
2023-02-25T18:43:48.887Z,6.70
2023-02-25T18:46:17.151Z,6.70
2023-02-25T18:48:45.372Z,6.70
2023-02-25T18:51:14.519Z,6.70
2023-02-25T18:53:44.218Z,6.70
2023-02-25T18:56:13.836Z,6.70
2023-02-25T18:58:42.788Z,6.70
2023-02-25T19:01:18.738Z,6.70
2023-02-25T19:03:46.870Z,6.60
2023-02-25T19:06:15.164Z,6.60
2023-02-25T19:08:44.722Z,6.60
2023-02-25T19:11:15.937Z,6.60
2023-02-25T19:13:44.401Z,6.50
2023-02-25T19:16:12.652Z,6.50
2023-02-25T19:18:41.465Z,6.50
2023-02-25T19:21:13.107Z,6.50
2023-02-25T19:23:41.287Z,6.50
2023-02-25T19:26:10.837Z,6.40
2023-02-25T19:28:39.016Z,6.40
2023-02-25T19:31:07.670Z,6.40
2023-02-25T19:33:36.190Z,6.40
2023-02-25T19:36:04.734Z,6.40
2023-02-25T19:38:32.864Z,6.30
2023-02-25T19:41:06.001Z,6.30
2023-02-25T19:43:35.681Z,6.30
2023-02-25T19:46:05.038Z,6.20
2023-02-25T19:48:33.373Z,6.20
2023-02-25T19:51:07.125Z,6.20
2023-02-25T19:53:35.403Z,6.10
2023-02-25T19:56:05.372Z,6.10
2023-02-25T19:58:34.884Z,6.10
2023-02-25T20:01:05.640Z,6.00
2023-02-25T20:03:33.918Z,6.00
2023-02-25T20:06:07.767Z,6.00
2023-02-25T20:08:37.550Z,6.00
2023-02-25T20:11:09.702Z,5.90
2023-02-25T20:13:39.686Z,5.90
2023-02-25T20:16:09.255Z,5.90
2023-02-25T20:18:37.567Z,5.90
2023-02-25T20:21:06.256Z,5.80
2023-02-25T20:23:34.577Z,5.80
2023-02-25T20:26:06.990Z,5.80
2023-02-25T20:28:35.387Z,5.80
2023-02-25T20:31:06.390Z,5.80
2023-02-25T20:33:34.938Z,5.70
2023-02-25T20:36:04.587Z,5.70
2023-02-25T20:38:36.163Z,5.70
2023-02-25T20:41:04.726Z,5.70
2023-02-25T20:43:33.129Z,5.60
2023-02-25T20:46:01.685Z,5.60
2023-02-25T20:48:32.850Z,5.60
2023-02-25T20:51:02.316Z,5.60
2023-02-25T20:53:31.146Z,5.60
2023-02-25T20:55:59.293Z,5.60
2023-02-25T20:58:27.584Z,5.60
2023-02-25T21:00:55.746Z,5.60
2023-02-25T21:03:23.956Z,5.60
2023-02-25T21:05:53.498Z,5.60
2023-02-25T21:08:21.680Z,5.60
2023-02-25T21:10:49.868Z,5.50
2023-02-25T21:13:18.057Z,5.50
2023-02-25T21:15:46.199Z,5.50
2023-02-25T21:18:14.464Z,5.50
2023-02-25T21:20:42.605Z,5.50
2023-02-25T21:23:12.106Z,5.50
2023-02-25T21:25:40.301Z,5.50
2023-02-25T21:28:08.512Z,5.40
2023-02-25T21:30:36.822Z,5.40
2023-02-25T21:33:07.345Z,5.40
2023-02-25T21:35:36.574Z,5.40
2023-02-25T21:38:04.692Z,5.40
2023-02-25T21:40:34.255Z,5.40
2023-02-25T21:43:02.548Z,5.30
2023-02-25T21:45:30.851Z,5.30
2023-02-25T21:47:58.984Z,5.30
2023-02-25T21:50:27.210Z,5.30
2023-02-25T21:52:56.376Z,5.30
2023-02-25T21:55:25.425Z,5.20
2023-02-25T21:57:54.927Z,5.20
2023-02-25T22:00:24.150Z,5.20
2023-02-25T22:02:52.591Z,5.10
2023-02-25T22:05:21.228Z,5.10
2023-02-25T22:07:49.408Z,5.10
2023-02-25T22:10:18.060Z,5.10
2023-02-25T22:12:46.360Z,5.10
2023-02-25T22:15:15.859Z,5.00
2023-02-25T22:17:43.972Z,5.00
2023-02-25T22:20:13.242Z,5.00
2023-02-25T22:22:41.381Z,4.90
2023-02-25T22:25:09.935Z,4.90
2023-02-25T22:27:38.140Z,4.90
2023-02-25T22:30:08.781Z,4.90
2023-02-25T22:32:38.513Z,4.90
2023-02-25T22:35:08.138Z,4.90
2023-02-25T22:37:36.350Z,4.80
2023-02-25T22:40:05.029Z,4.80
2023-02-25T22:42:33.207Z,4.80
2023-02-25T22:45:01.413Z,4.80
2023-02-25T22:47:29.539Z,4.80
2023-02-25T22:49:59.114Z,4.70
2023-02-25T22:52:27.306Z,4.80
2023-02-25T22:54:55.439Z,4.70
2023-02-25T22:57:23.780Z,4.70
2023-02-25T22:59:52.010Z,4.70
2023-02-25T23:02:20.174Z,4.70
2023-02-25T23:04:48.405Z,4.70
2023-02-25T23:07:17.984Z,4.70
2023-02-25T23:09:46.247Z,4.70
2023-02-25T23:12:14.476Z,4.70
2023-02-25T23:14:43.259Z,4.60
2023-02-25T23:17:11.439Z,4.60
2023-02-25T23:19:40.158Z,4.60
2023-02-25T23:22:09.622Z,4.60
2023-02-25T23:24:39.181Z,4.70
2023-02-25T23:27:07.774Z,4.60
2023-02-25T23:29:36.257Z,4.60
2023-02-25T23:32:04.757Z,4.60
2023-02-25T23:34:32.913Z,4.60
2023-02-25T23:37:01.078Z,4.60
2023-02-25T23:39:29.235Z,4.60
2023-02-25T23:41:58.729Z,4.60
2023-02-25T23:44:27.581Z,4.60
2023-02-25T23:46:55.796Z,4.60
2023-02-25T23:49:23.959Z,4.50
2023-02-25T23:51:52.129Z,4.50
2023-02-25T23:54:21.883Z,4.50
2023-02-25T23:56:50.420Z,4.50
2023-02-25T23:59:19.931Z,4.50
